Gallatin, TN (37066)

7:16 PM CDT en Septiembre 25, 2016 (GMT -0500)
Foxfire 2 Subdivision | | Change Station

Alt 479 ft 36.37 °N, 86.46 °W | Updated 3 minutes ago

Partly Cloudy
Parcialmente nublado
78.3 ° F
Sensación térmica 80 ° F
N
0.0
Viento Variable Viento desde Este
Gusts 0.0 mph

Hoy
Alta -- | Baja -- ° F
--% Posibilidad de precipitaciones
Ayer
Alta -- | Baja -- ° F
Precip. -- pul
Presión 29.99 pul
Visibilidad 10.0 Millas
Nubes Baja 20000 ft
Índice de calor 80 ° F
Punto de rocío 62 ° F
Humedad 58%
Precipitaciones 0.00 pul
Espesor de la nieve No disponible.
6:36 AM 6:37 PM
Creciente menguante, 23% visible
METAR KBNA 252353Z 36003KT 10SM FEW200 29/17 A3001 RMK AO2 SLP155 T02940167 10344 20289 55001
Presión 29.99 pul
Visibilidad 10.0 Millas
Nubes Baja 20000 ft
Índice de calor 80 ° F
Punto de rocío 62 ° F
Humedad 58%
Precipitaciones 0.00 pul
Espesor de la nieve No disponible.
6:36 AM 6:37 PM
Creciente menguante, 23% visible
METAR KBNA 252353Z 36003KT 10SM FEW200 29/17 A3001 RMK AO2 SLP155 T02940167 10344 20289 55001

10-Day Weather Forecast

Almanac

Astronomía

Sep. 25, 2016 Salida Puesta
Hora real
Crepúsculo civil
Crepúsculo náutico
Crepúsculo astronómico
Luna
Horas de luz
Horas de luz
Tomorrow will be .
, % of the Moon is Illuminated

Extremos de hoy

Máximos del estado Bajos del estado

Community

WunderPhotos

Upload Photos

1,941,789 ¡fotos cargadas!

WunderBlog® & News

Nearby

Calidad del aire

  Calidad del aire Índice AQ Contaminante
Not available.

Grosos de nieve

Estación Profundido Altura

Actividad de terremotos

Ciudad Distance Mag. Tiempo y dato
Magnitud mínima muestra es 2,5.

Temperaturas de aguas costeras

Lugar Temperatura

Stations

Estaciones meteorológicas cercanas

Ubicación de la estación Temp. Vientos helados Punto de rocío Humedad Viento Precip. Alt Actualizado Tipo
                   

Watches & Warnings

There are currently no watches in effect.